Georgia State University, Georgia
Current Conditions -  °F | °C
As of 1:52 AM on Saturday 25 Oct 2014 (Local Time) from KATL Reporting Station
Clear Clear  
Wind Chill: 53°   Ceiling: Unl
Heat Index: 53°   Visibility: 10mi
Dew Point: 44°   Wind: 9mph
Humidity: 71%   Direction: 320°NW
Pressure: 30.03"   Gusts: NA
Location:  33.7534°N, 84.3891°W
Report Text: KATL 250552Z 32008KT 10SM CLR 12/07 A3003 RMK AO2 SLP166 T01170067 10183 20117 56003
Loading
Personal Weather Stations






























Interactive Weather Map
Tropical Storm Tracking
New forecast layout! Learn more

10-Day Weather Forecast

Advertisements
Track Severe Weather on mobile